Norwegian Jade — C6WK7 — position and weather

sailwx.info

Track history (hours):
 
Tides and Currents Weather Stations Pressure Air Temp Water Temp Dewpoint Dewpoint Depression Visibility Wind Speed Wind Dir Waves Ship Positions

Norwegian Jade

Last reported at 2018-Jun-23 11:59 UTC. Time now 2018-Jun-23 12:22 UTC.
Position N 69°41' E 018°60'.

Length 294 m; draft 8.5 m.

Type: Passenger vessel. MMSI: 308416000.

Date/timePositionNaut miles runAvg speedWind from/ knotsBaromVisibWave heightAir tempDewpointWater temp
2018-Jun-23 11:59N 69°41' E 018°60'0 0.0
2018-Jun-23 11:29N 69°41' E 018°60'0 0.0
2018-Jun-23 10:59N 69°41' E 018°60'0 0.0
2018-Jun-23 10:29N 69°41' E 018°60'0 0.0
2018-Jun-23 09:59N 69°41' E 018°60'0 0.0
2018-Jun-23 09:29N 69°41' E 018°60'0 0.0
2018-Jun-23 08:59N 69°41' E 018°60'0 0.0
2018-Jun-23 08:29N 69°41' E 018°60'0 0.0
2018-Jun-23 07:59N 69°41' E 018°60'0 0.0
2018-Jun-23 07:29N 69°41' E 018°60'0 0.0
2018-Jun-23 06:59N 69°41' E 018°60'0 0.0
2018-Jun-23 06:29N 69°41' E 018°60'0 0.0
2018-Jun-23 05:59N 69°41' E 018°60'0 1.0
2018-Jun-23 05:30N 69°41' E 019°01'714.0
2018-Jun-23 05:00N 69°48' E 019°02'815.7
2018-Jun-23 04:29N 69°54' E 018°45'5 9.2
2018-Jun-23 03:58N 69°50' E 018°39'714.9
2018-Jun-23 03:29N 69°48' E 018°18'714.6
2018-Jun-23 03:00N 69°45' E 017°60'713.0
2018-Jun-23 02:30N 69°44' E 017°41'816.5
2018-Jun-23 02:00N 69°43' E 017°17'817.0
2018-Jun-23 01:30N 69°42' E 016°53'816.4
2018-Jun-23 01:00N 69°40' E 016°30'817.2
2018-Jun-23 00:30N 69°36' E 016°08'1019.0
2018-Jun-23 00:00N 69°32' E 015°43'1020.6
2018-Jun-22 23:30N 69°26' E 015°20'1120.9
2018-Jun-22 22:58N 69°19' E 014°55'1021.1
2018-Jun-22 22:30N 69°13' E 014°34'1121.1
2018-Jun-22 22:00N 69°05' E 014°15'1120.5
2018-Jun-22 21:29N 68°56' E 013°56'1020.5
2018-Jun-22 21:00N 68°48' E 013°41'1020.7
2018-Jun-22 20:30N 68°39' E 013°28'1020.7
2018-Jun-22 20:00N 68°30' E 013°15'1020.9
2018-Jun-22 19:30N 68°20' E 013°03'1020.3
2018-Jun-22 19:00N 68°11' E 012°51'815.9
2018-Jun-22 18:30N 68°03' E 012°44'815.2
2018-Jun-22 18:00N 67°56' E 012°41'714.2
2018-Jun-22 17:30N 67°49' E 012°44'815.3
2018-Jun-22 17:00N 67°52' E 013°02'917.2
2018-Jun-22 16:30N 67°58' E 013°20'815.7
2018-Jun-22 16:00N 68°03' E 013°35'4 8.0
2018-Jun-22 15:30N 68°07' E 013°36'0 0.2
2018-Jun-22 14:58N 68°07' E 013°36'0 0.0
2018-Jun-22 14:25N 68°07' E 013°36'0 0.0
2018-Jun-22 13:58N 68°07' E 013°36'0 0.1
2018-Jun-22 13:28N 68°07' E 013°36'0 0.0
2018-Jun-22 12:58N 68°07' E 013°36'0 0.0
2018-Jun-22 12:28N 68°07' E 013°36'0 0.1
2018-Jun-22 11:58N 68°07' E 013°36'0 0.0
2018-Jun-22 11:28N 68°07' E 013°36'0 0.1
2018-Jun-22 10:58N 68°07' E 013°36'0 0.0
2018-Jun-22 10:28N 68°07' E 013°36'0 0.0
2018-Jun-22 09:55N 68°07' E 013°36'0 0.1
2018-Jun-22 09:28N 68°07' E 013°36'0 0.0
2018-Jun-22 08:58N 68°07' E 013°36'0 0.0
2018-Jun-22 08:28N 68°07' E 013°36'0 0.0
2018-Jun-22 07:58N 68°07' E 013°36'0 0.0
2018-Jun-22 07:28N 68°07' E 013°36'0 0.0
2018-Jun-22 06:58N 68°07' E 013°36'0 0.0
2018-Jun-22 06:28N 68°07' E 013°36'0 0.0
2018-Jun-22 05:58N 68°07' E 013°36'0 0.0
2018-Jun-22 05:28N 68°07' E 013°36'0 0.0
2018-Jun-22 04:58N 68°07' E 013°36'0 0.0
2018-Jun-22 04:28N 68°07' E 013°36'0 0.1
2018-Jun-22 03:59N 68°07' E 013°36'0 0.7
2018-Jun-22 03:29N 68°07' E 013°36'4 8.1
2018-Jun-22 02:59N 68°03' E 013°35'611.5
2018-Jun-22 02:30N 67°57' E 013°33'612.7
2018-Jun-22 02:00N 67°51' E 013°30'712.7
2018-Jun-22 01:28N 67°44' E 013°28'612.7
2018-Jun-22 01:00N 67°38' E 013°25'612.6
2018-Jun-22 00:30N 67°32' E 013°22'612.6
2018-Jun-21 23:59N 67°26' E 013°20'612.5
2018-Jun-21 23:30N 67°20' E 013°17'611.0
2018-Jun-21 23:00N 67°15' E 013°24'612.8
2018-Jun-21 22:30N 67°14' E 013°40'612.7
2018-Jun-21 22:00N 67°12' E 013°56'5 9.1
2018-Jun-21 21:31N 67°08' E 014°01'917.5
2018-Jun-21 21:00N 67°01' E 013°47'815.9
2018-Jun-21 20:30N 66°57' E 013°29'612.9
2018-Jun-21 20:00N 66°52' E 013°36'2 3.9
2018-Jun-21 19:30N 66°50' E 013°38'917.9
2018-Jun-21 19:00N 66°47' E 013°16'510.4
2018-Jun-21 18:30N 66°44' E 013°27'611.7
2018-Jun-21 17:59N 66°42' E 013°42'0 0.3
2018-Jun-21 17:30N 66°42' E 013°42'1 2.4
2018-Jun-21 16:59N 66°42' E 013°39'611.7
2018-Jun-21 16:30N 66°44' E 013°25'714.2
2018-Jun-21 15:59N 66°41' E 013°09'715.4
2018-Jun-21 15:30N 66°34' E 013°05'4 8.9
2018-Jun-21 15:00N 66°31' E 012°58'815.7
2018-Jun-21 14:30N 66°23' E 012°58'815.6
2018-Jun-21 14:00N 66°18' E 012°43'714.6
2018-Jun-21 13:30N 66°15' E 012°27'611.8
2018-Jun-21 13:01N 66°17' E 012°13'918.8
2018-Jun-21 12:31N 66°15' E 011°50'25521.2
2018-Jun-21 00:28N 62°53' E 005°47'1021.0
2018-Jun-20 23:59N 62°44' E 005°36'1020.4
2018-Jun-20 23:30N 62°35' E 005°25'1021.0
2018-Jun-20 23:00N 62°27' E 005°12'1121.1
2018-Jun-20 22:30N 62°18' E 004°59'1021.2
2018-Jun-20 22:00N 62°09' E 004°49'1121.1
2018-Jun-20 21:30N 61°60' E 004°38'1121.1
2018-Jun-20 21:00N 61°50' E 004°28'1320.3
2018-Jun-20 20:20N 61°37' E 004°21'720.8
2018-Jun-20 20:00N 61°30' E 004°21'1121.2
2018-Jun-20 19:30N 61°19' E 004°21'1121.3
2018-Jun-20 19:00N 61°09' E 004°20'1021.0
2018-Jun-20 18:30N 60°58' E 004°20'918.1
2018-Jun-20 17:59N 60°50' E 004°26'815.4
2018-Jun-20 17:30N 60°45' E 004°39'612.0
2018-Jun-20 17:00N 60°42' E 004°49'815.3
2018-Jun-20 16:30N 60°35' E 004°55'816.0
2018-Jun-20 16:00N 60°27' E 005°01'713.1
2018-Jun-20 15:30N 60°23' E 005°11'4 7.3
2018-Jun-20 14:56N 60°24' E 005°19'0 0.0
2018-Jun-20 14:26N 60°24' E 005°19'0 0.0
2018-Jun-20 13:56N 60°24' E 005°19'0 0.0
2018-Jun-20 13:26N 60°24' E 005°19'0 0.0
2018-Jun-20 12:56N 60°24' E 005°19'0 0.0
2018-Jun-20 12:26N 60°24' E 005°19'0 0.0
2018-Jun-20 11:56N 60°24' E 005°19'0 0.0
2018-Jun-20 11:26N 60°24' E 005°19'0 0.0
2018-Jun-20 10:56N 60°24' E 005°19'0 0.0
2018-Jun-20 10:26N 60°24' E 005°19'0 0.0
2018-Jun-20 09:56N 60°24' E 005°19'0 0.0
2018-Jun-20 09:26N 60°24' E 005°19'0 0.0
2018-Jun-20 08:56N 60°24' E 005°19'0 0.0
2018-Jun-20 08:26N 60°24' E 005°19'0 0.0
2018-Jun-20 07:56N 60°24' E 005°19'0 0.0
2018-Jun-20 07:26N 60°24' E 005°19'0 0.0
2018-Jun-20 06:56N 60°24' E 005°19'0 0.0
2018-Jun-20 06:26N 60°24' E 005°19'0 0.0
2018-Jun-20 05:56N 60°24' E 005°19'0 0.0
2018-Jun-20 05:29N 60°24' E 005°19'2 3.3
2018-Jun-20 05:00N 60°24' E 005°16'5 9.9
2018-Jun-20 04:30N 60°25' E 005°06'815.4
2018-Jun-20 04:00N 60°31' E 004°57'816.6
2018-Jun-20 03:30N 60°39' E 004°52'815.2
2018-Jun-20 02:59N 60°44' E 004°41'715.0
2018-Jun-20 02:30N 60°41' E 004°28'26 4.2
2018-Jun-19 20:27N 60°15' E 004°28'3 7.6
2018-Jun-19 20:00N 60°13' E 004°33'4 7.5
2018-Jun-19 19:30N 60°12' E 004°40'510.4
2018-Jun-19 19:00N 60°11' E 004°50'612.4
2018-Jun-19 18:30N 60°09' E 005°02'713.2
2018-Jun-19 18:00N 60°10' E 005°16'715.4
2018-Jun-19 17:30N 60°03' E 005°20'714.7
2018-Jun-19 17:00N 59°56' E 005°28'715.0
2018-Jun-19 16:30N 59°50' E 005°33'815.0
2018-Jun-19 16:00N 59°43' E 005°27'816.5
2018-Jun-19 15:30N 59°36' E 005°17'815.0
2018-Jun-19 15:00N 59°29' E 005°12'5 9.2
2018-Jun-19 14:30N 59°25' E 005°14'1 1.3
2018-Jun-19 13:58N 59°25' E 005°15'0 0.0
2018-Jun-19 13:28N 59°25' E 005°15'0 0.0
2018-Jun-19 12:58N 59°25' E 005°15'0 0.0
2018-Jun-19 12:28N 59°25' E 005°15'0 0.0
2018-Jun-19 11:58N 59°25' E 005°15'0 0.0
2018-Jun-19 11:28N 59°25' E 005°15'0 0.0
2018-Jun-19 10:58N 59°25' E 005°15'0 0.0
2018-Jun-19 10:28N 59°25' E 005°15'0 0.0
2018-Jun-19 09:58N 59°25' E 005°15'0 0.0
2018-Jun-19 09:28N 59°25' E 005°15'0 0.0
2018-Jun-19 08:58N 59°25' E 005°15'0 0.0
2018-Jun-19 08:28N 59°25' E 005°15'0 0.0
2018-Jun-19 07:58N 59°25' E 005°15'0 0.0
2018-Jun-19 07:28N 59°25' E 005°15'0 0.0
2018-Jun-19 06:58N 59°25' E 005°15'0 0.0
2018-Jun-19 06:29N 59°25' E 005°15'3 5.1
2018-Jun-19 05:59N 59°27' E 005°12'611.6
2018-Jun-19 05:30N 59°22' E 005°06'817.0
2018-Jun-19 05:01N 59°13' E 005°07'816.0
2018-Jun-19 04:31N 59°06' E 005°15'611.9
2018-Jun-19 04:00N 59°06' E 005°26'510.2
2018-Jun-19 03:30N 59°02' E 005°20'714.4
2018-Jun-19 03:00N 58°55' E 005°19'815.5
2018-Jun-19 02:30N 58°48' E 005°17'815.6
2018-Jun-19 02:00N 58°40' E 005°14'815.8
2018-Jun-19 01:30N 58°32' E 005°12'917.0
2018-Jun-19 00:59N 58°23' E 005°08'38218.4
2018-Jun-18 04:12N 52°11' E 002°37'1522.9
2018-Jun-18 03:33N 51°56' E 002°37'222.7
2018-Jun-18 03:27N 51°54' E 002°37'1021.7
2018-Jun-18 03:00N 51°45' E 002°31'1122.4
2018-Jun-18 02:30N 51°36' E 002°21'1122.2
2018-Jun-18 02:00N 51°26' E 002°10'1121.5
2018-Jun-18 01:30N 51°16' E 002°06'1122.1
2018-Jun-18 01:00N 51°10' E 001°51'1122.0
2018-Jun-18 00:30N 51°03' E 001°38'1121.4
2018-Jun-18 00:00N 50°56' E 001°25'1121.4
2018-Jun-17 23:30N 50°45' E 001°21'1121.3
2018-Jun-17 22:59N 50°37' E 001°10'1021.8
2018-Jun-17 22:30N 50°31' E 000°56'1122.3
2018-Jun-17 22:00N 50°29' E 000°39'1122.2
2018-Jun-17 21:31N 50°25' E 000°22'1921.6
2018-Jun-17 20:37N 50°21' W 000°07'621.5
2018-Jun-17 20:21N 50°24' W 000°15'721.2
2018-Jun-17 20:01N 50°27' W 000°25'1020.5
2018-Jun-17 19:30N 50°33' W 000°39'815.5
2018-Jun-17 19:01N 50°37' W 000°50'714.1
2018-Jun-17 18:30N 50°42' W 000°58'715.0
2018-Jun-17 18:01N 50°45' W 001°08'714.3
2018-Jun-17 17:30N 50°47' W 001°19'4 8.8
2018-Jun-17 17:01N 50°52' W 001°21'3 5.5
2018-Jun-17 16:26N 50°54' W 001°25'0 0.0
2018-Jun-17 15:59N 50°54' W 001°25'0 0.0
2018-Jun-17 15:29N 50°54' W 001°25'0 0.0
2018-Jun-17 14:50N 50°54' W 001°25'0 0.0
2018-Jun-17 14:29N 50°54' W 001°25'0 0.0
2018-Jun-17 13:59N 50°54' W 001°25'0 0.0
2018-Jun-17 13:29N 50°54' W 001°25'0 0.0
2018-Jun-17 12:59N 50°54' W 001°25'0 0.0
2018-Jun-17 12:28N 50°54' W 001°25'0 0.0
2018-Jun-17 11:59N 50°54' W 001°25'0 0.0
2018-Jun-17 11:28N 50°54' W 001°25'0 0.0
2018-Jun-17 10:59N 50°54' W 001°25'0 0.0
2018-Jun-17 10:29N 50°54' W 001°25'0 0.0
2018-Jun-17 09:59N 50°54' W 001°25'0 0.0
2018-Jun-17 09:29N 50°54' W 001°25'0 0.0
2018-Jun-17 08:59N 50°54' W 001°25'0 0.0
2018-Jun-17 08:29N 50°54' W 001°25'0 0.0
2018-Jun-17 07:59N 50°54' W 001°25'0 0.0
2018-Jun-17 07:29N 50°54' W 001°25'0 0.0
2018-Jun-17 06:59N 50°54' W 001°25'0 0.1
2018-Jun-17 06:30N 50°54' W 001°25'1 2.7
2018-Jun-17 06:00N 50°53' W 001°24'4 8.6
2018-Jun-17 05:30N 50°50' W 001°19'5 9.1
2018-Jun-17 05:00N 50°46' W 001°15'918.4
2018-Jun-17 04:30N 50°43' W 001°01'611.5
2018-Jun-17 04:00N 50°39' W 000°55'510.3
2018-Jun-17 03:30N 50°36' W 000°48'714.0
2018-Jun-17 03:00N 50°34' W 000°38'714.0
2018-Jun-17 02:30N 50°33' W 000°27'714.7
2018-Jun-17 02:00N 50°33' W 000°15'714.8
2018-Jun-17 01:30N 50°32' W 000°04'815.5
2018-Jun-17 00:59N 50°33' E 000°09'815.9
2018-Jun-17 00:30N 50°35' E 000°21'815.2
2018-Jun-17 00:01N 50°37' E 000°32'815.0
2018-Jun-16 23:31N 50°41' E 000°42'815.3
2018-Jun-16 23:00N 50°45' E 000°53'816.0
2018-Jun-16 22:30N 50°49' E 001°03'816.8
2018-Jun-16 22:00N 50°53' E 001°15'918.4
2018-Jun-16 21:30N 50°60' E 001°25'1122.8
2018-Jun-16 21:01N 51°08' E 001°38'1122.1
2018-Jun-16 20:31N 51°16' E 001°49'1121.5
2018-Jun-16 20:00N 51°26' E 001°57'1020.6
2018-Jun-16 19:31N 51°34' E 002°07'1020.1
2018-Jun-16 19:00N 51°41' E 002°18'1019.5
2018-Jun-16 18:30N 51°49' E 002°27'1019.1
2018-Jun-16 18:00N 51°58' E 002°35'816.1
2018-Jun-16 17:29N 52°06' E 002°38'1815.3
2018-Jun-16 16:17N 52°24' E 002°38'515.4
2018-Jun-16 15:57N 52°29' E 002°38'715.5
2018-Jun-16 15:30N 52°36' E 002°39'815.9
2018-Jun-16 15:00N 52°44' E 002°40'916.6
2018-Jun-16 14:28N 52°53' E 002°40'44711.9
2018-Jun-15 01:00N 60°18' E 001°18'9314.2 250 / 401000.110.8 11.0 10.0
2018-Jun-14 18:28N 60°43' E 004°19'612.9
2018-Jun-14 18:00N 60°44' E 004°32'612.4
2018-Jun-14 17:30N 60°44' E 004°44'713.3
2018-Jun-14 17:00N 60°39' E 004°52'918.0
2018-Jun-14 16:29N 60°30' E 004°58'613.2
2018-Jun-14 16:00N 60°25' E 005°06'5 9.5
2018-Jun-14 15:30N 60°24' E 005°16'2 2.8
2018-Jun-14 14:56N 60°24' E 005°19'0 0.0
2018-Jun-14 14:26N 60°24' E 005°19'0 0.0
2018-Jun-14 13:56N 60°24' E 005°19'0 0.0
2018-Jun-14 13:26N 60°24' E 005°19'0 0.0
2018-Jun-14 12:56N 60°24' E 005°19'0 0.0
2018-Jun-14 12:26N 60°24' E 005°19'0 0.0
2018-Jun-14 11:56N 60°24' E 005°19'0 0.0
2018-Jun-14 11:26N 60°24' E 005°19'0 0.0
2018-Jun-14 10:56N 60°24' E 005°19'0 0.0
2018-Jun-14 10:26N 60°24' E 005°19'0 0.0
2018-Jun-14 09:56N 60°24' E 005°19'0 0.0
2018-Jun-14 09:26N 60°24' E 005°19'0 0.0
2018-Jun-14 08:56N 60°24' E 005°19'0 0.0
2018-Jun-14 08:26N 60°24' E 005°19'0 0.0
2018-Jun-14 07:56N 60°24' E 005°19'0 0.0
2018-Jun-14 07:26N 60°24' E 005°19'0 0.0
2018-Jun-14 06:56N 60°24' E 005°19'0 0.0
2018-Jun-14 06:26N 60°24' E 005°19'0 0.0
2018-Jun-14 05:57N 60°24' E 005°19'0 0.2
2018-Jun-14 05:29N 60°24' E 005°19'4 8.1
2018-Jun-14 05:01N 60°23' E 005°11'510.8
2018-Jun-14 04:30N 60°26' E 005°02'714.6
2018-Jun-14 04:00N 60°33' E 004°56'714.6
2018-Jun-14 03:30N 60°40' E 004°51'611.2
2018-Jun-14 02:59N 60°44' E 004°44'611.5
2018-Jun-14 02:29N 60°47' E 004°33'611.8
2018-Jun-14 01:59N 60°51' E 004°26'612.0
2018-Jun-14 01:30N 60°56' E 004°21'612.1
2018-Jun-14 01:00N 61°02' E 004°17'6612.4
2018-Jun-13 19:41N 62°08' E 004°28'213.9
2018-Jun-13 19:30N 62°10' E 004°29'714.0
2018-Jun-13 19:00N 62°15' E 004°40'714.4
2018-Jun-13 18:30N 62°20' E 004°52'714.3
2018-Jun-13 18:00N 62°24' E 005°04'714.2
2018-Jun-13 17:29N 62°29' E 005°17'713.9
2018-Jun-13 17:00N 62°30' E 005°30'713.9
2018-Jun-13 16:30N 62°29' E 005°46'713.5
2018-Jun-13 16:00N 62°27' E 005°59'5 9.4
2018-Jun-13 15:30N 62°27' E 006°09'1 1.9
2018-Jun-13 14:59N 62°28' E 006°09'0 0.0
2018-Jun-13 14:29N 62°28' E 006°09'0 0.0
2018-Jun-13 13:59N 62°28' E 006°09'0 0.0
2018-Jun-13 13:29N 62°28' E 006°09'0 0.0
2018-Jun-13 12:59N 62°28' E 006°09'0 0.0
2018-Jun-13 12:29N 62°28' E 006°09'0 0.0
2018-Jun-13 11:59N 62°28' E 006°09'  
Track history (hours):
 
Tides and Currents Weather Stations Pressure Air Temp Water Temp Dewpoint Dewpoint Depression Visibility Wind Speed Wind Dir Waves Ship Positions

Norwegian Jade

Last reported at 2018-Jun-23 11:59 UTC. Time now 2018-Jun-23 12:22 UTC.
Position N 69°41' E 018°60'.

Length 294 m; draft 8.5 m.

Type: Passenger vessel. MMSI: 308416000.

Date/timePositionNaut miles runAvg speedWind from/ knotsBaromVisibWave heightAir tempDewpointWater temp
2018-Jun-23 11:59N 69°41' E 018°60'0 0.0
2018-Jun-23 11:29N 69°41' E 018°60'0 0.0
2018-Jun-23 10:59N 69°41' E 018°60'0 0.0
2018-Jun-23 10:29N 69°41' E 018°60'0 0.0
2018-Jun-23 09:59N 69°41' E 018°60'0 0.0
2018-Jun-23 09:29N 69°41' E 018°60'0 0.0
2018-Jun-23 08:59N 69°41' E 018°60'0 0.0
2018-Jun-23 08:29N 69°41' E 018°60'0 0.0
2018-Jun-23 07:59N 69°41' E 018°60'0 0.0
2018-Jun-23 07:29N 69°41' E 018°60'0 0.0
2018-Jun-23 06:59N 69°41' E 018°60'0 0.0
2018-Jun-23 06:29N 69°41' E 018°60'0 0.0
2018-Jun-23 05:59N 69°41' E 018°60'0 1.0
2018-Jun-23 05:30N 69°41' E 019°01'714.0
2018-Jun-23 05:00N 69°48' E 019°02'815.7
2018-Jun-23 04:29N 69°54' E 018°45'5 9.2
2018-Jun-23 03:58N 69°50' E 018°39'714.9
2018-Jun-23 03:29N 69°48' E 018°18'714.6
2018-Jun-23 03:00N 69°45' E 017°60'713.0
2018-Jun-23 02:30N 69°44' E 017°41'816.5
2018-Jun-23 02:00N 69°43' E 017°17'817.0
2018-Jun-23 01:30N 69°42' E 016°53'816.4
2018-Jun-23 01:00N 69°40' E 016°30'817.2
2018-Jun-23 00:30N 69°36' E 016°08'1019.0
2018-Jun-23 00:00N 69°32' E 015°43'1020.6
2018-Jun-22 23:30N 69°26' E 015°20'1120.9
2018-Jun-22 22:58N 69°19' E 014°55'1021.1
2018-Jun-22 22:30N 69°13' E 014°34'1121.1
2018-Jun-22 22:00N 69°05' E 014°15'1120.5
2018-Jun-22 21:29N 68°56' E 013°56'1020.5
2018-Jun-22 21:00N 68°48' E 013°41'1020.7
2018-Jun-22 20:30N 68°39' E 013°28'1020.7
2018-Jun-22 20:00N 68°30' E 013°15'1020.9
2018-Jun-22 19:30N 68°20' E 013°03'1020.3
2018-Jun-22 19:00N 68°11' E 012°51'815.9
2018-Jun-22 18:30N 68°03' E 012°44'815.2
2018-Jun-22 18:00N 67°56' E 012°41'714.2
2018-Jun-22 17:30N 67°49' E 012°44'815.3
2018-Jun-22 17:00N 67°52' E 013°02'917.2
2018-Jun-22 16:30N 67°58' E 013°20'815.7
2018-Jun-22 16:00N 68°03' E 013°35'4 8.0
2018-Jun-22 15:30N 68°07' E 013°36'0 0.2
2018-Jun-22 14:58N 68°07' E 013°36'0 0.0
2018-Jun-22 14:25N 68°07' E 013°36'0 0.0
2018-Jun-22 13:58N 68°07' E 013°36'0 0.1
2018-Jun-22 13:28N 68°07' E 013°36'0 0.0
2018-Jun-22 12:58N 68°07' E 013°36'0 0.0
2018-Jun-22 12:28N 68°07' E 013°36'0 0.1
2018-Jun-22 11:58N 68°07' E 013°36'0 0.0
2018-Jun-22 11:28N 68°07' E 013°36'0 0.1
2018-Jun-22 10:58N 68°07' E 013°36'0 0.0
2018-Jun-22 10:28N 68°07' E 013°36'0 0.0
2018-Jun-22 09:55N 68°07' E 013°36'0 0.1
2018-Jun-22 09:28N 68°07' E 013°36'0 0.0
2018-Jun-22 08:58N 68°07' E 013°36'0 0.0
2018-Jun-22 08:28N 68°07' E 013°36'0 0.0
2018-Jun-22 07:58N 68°07' E 013°36'0 0.0
2018-Jun-22 07:28N 68°07' E 013°36'0 0.0
2018-Jun-22 06:58N 68°07' E 013°36'0 0.0
2018-Jun-22 06:28N 68°07' E 013°36'0 0.0
2018-Jun-22 05:58N 68°07' E 013°36'0 0.0
2018-Jun-22 05:28N 68°07' E 013°36'0 0.0
2018-Jun-22 04:58N 68°07' E 013°36'0 0.0
2018-Jun-22 04:28N 68°07' E 013°36'0 0.1
2018-Jun-22 03:59N 68°07' E 013°36'0 0.7
2018-Jun-22 03:29N 68°07' E 013°36'4 8.1
2018-Jun-22 02:59N 68°03' E 013°35'611.5
2018-Jun-22 02:30N 67°57' E 013°33'612.7
2018-Jun-22 02:00N 67°51' E 013°30'712.7
2018-Jun-22 01:28N 67°44' E 013°28'612.7
2018-Jun-22 01:00N 67°38' E 013°25'612.6
2018-Jun-22 00:30N 67°32' E 013°22'612.6
2018-Jun-21 23:59N 67°26' E 013°20'612.5
2018-Jun-21 23:30N 67°20' E 013°17'611.0
2018-Jun-21 23:00N 67°15' E 013°24'612.8
2018-Jun-21 22:30N 67°14' E 013°40'612.7
2018-Jun-21 22:00N 67°12' E 013°56'5 9.1
2018-Jun-21 21:31N 67°08' E 014°01'917.5
2018-Jun-21 21:00N 67°01' E 013°47'815.9
2018-Jun-21 20:30N 66°57' E 013°29'612.9
2018-Jun-21 20:00N 66°52' E 013°36'2 3.9
2018-Jun-21 19:30N 66°50' E 013°38'917.9
2018-Jun-21 19:00N 66°47' E 013°16'510.4
2018-Jun-21 18:30N 66°44' E 013°27'611.7
2018-Jun-21 17:59N 66°42' E 013°42'0 0.3
2018-Jun-21 17:30N 66°42' E 013°42'1 2.4
2018-Jun-21 16:59N 66°42' E 013°39'611.7
2018-Jun-21 16:30N 66°44' E 013°25'714.2
2018-Jun-21 15:59N 66°41' E 013°09'715.4
2018-Jun-21 15:30N 66°34' E 013°05'4 8.9
2018-Jun-21 15:00N 66°31' E 012°58'815.7
2018-Jun-21 14:30N 66°23' E 012°58'815.6
2018-Jun-21 14:00N 66°18' E 012°43'714.6
2018-Jun-21 13:30N 66°15' E 012°27'611.8
2018-Jun-21 13:01N 66°17' E 012°13'918.8
2018-Jun-21 12:31N 66°15' E 011°50'25521.2
2018-Jun-21 00:28N 62°53' E 005°47'1021.0
2018-Jun-20 23:59N 62°44' E 005°36'1020.4
2018-Jun-20 23:30N 62°35' E 005°25'1021.0
2018-Jun-20 23:00N 62°27' E 005°12'1121.1
2018-Jun-20 22:30N 62°18' E 004°59'1021.2
2018-Jun-20 22:00N 62°09' E 004°49'1121.1
2018-Jun-20 21:30N 61°60' E 004°38'1121.1
2018-Jun-20 21:00N 61°50' E 004°28'1320.3
2018-Jun-20 20:20N 61°37' E 004°21'720.8
2018-Jun-20 20:00N 61°30' E 004°21'1121.2
2018-Jun-20 19:30N 61°19' E 004°21'1121.3
2018-Jun-20 19:00N 61°09' E 004°20'1021.0
2018-Jun-20 18:30N 60°58' E 004°20'918.1
2018-Jun-20 17:59N 60°50' E 004°26'815.4
2018-Jun-20 17:30N 60°45' E 004°39'612.0
2018-Jun-20 17:00N 60°42' E 004°49'815.3
2018-Jun-20 16:30N 60°35' E 004°55'816.0
2018-Jun-20 16:00N 60°27' E 005°01'713.1
2018-Jun-20 15:30N 60°23' E 005°11'4 7.3
2018-Jun-20 14:56N 60°24' E 005°19'0 0.0
2018-Jun-20 14:26N 60°24' E 005°19'0 0.0
2018-Jun-20 13:56N 60°24' E 005°19'0 0.0
2018-Jun-20 13:26N 60°24' E 005°19'0 0.0
2018-Jun-20 12:56N 60°24' E 005°19'0 0.0
2018-Jun-20 12:26N 60°24' E 005°19'0 0.0
2018-Jun-20 11:56N 60°24' E 005°19'0 0.0
2018-Jun-20 11:26N 60°24' E 005°19'0 0.0
2018-Jun-20 10:56N 60°24' E 005°19'0 0.0
2018-Jun-20 10:26N 60°24' E 005°19'0 0.0
2018-Jun-20 09:56N 60°24' E 005°19'0 0.0
2018-Jun-20 09:26N 60°24' E 005°19'0 0.0
2018-Jun-20 08:56N 60°24' E 005°19'0 0.0
2018-Jun-20 08:26N 60°24' E 005°19'0 0.0
2018-Jun-20 07:56N 60°24' E 005°19'0 0.0
2018-Jun-20 07:26N 60°24' E 005°19'0 0.0
2018-Jun-20 06:56N 60°24' E 005°19'0 0.0
2018-Jun-20 06:26N 60°24' E 005°19'0 0.0
2018-Jun-20 05:56N 60°24' E 005°19'0 0.0
2018-Jun-20 05:29N 60°24' E 005°19'2 3.3
2018-Jun-20 05:00N 60°24' E 005°16'5 9.9
2018-Jun-20 04:30N 60°25' E 005°06'815.4
2018-Jun-20 04:00N 60°31' E 004°57'816.6
2018-Jun-20 03:30N 60°39' E 004°52'815.2
2018-Jun-20 02:59N 60°44' E 004°41'715.0
2018-Jun-20 02:30N 60°41' E 004°28'26 4.2
2018-Jun-19 20:27N 60°15' E 004°28'3 7.6
2018-Jun-19 20:00N 60°13' E 004°33'4 7.5
2018-Jun-19 19:30N 60°12' E 004°40'510.4
2018-Jun-19 19:00N 60°11' E 004°50'612.4
2018-Jun-19 18:30N 60°09' E 005°02'713.2
2018-Jun-19 18:00N 60°10' E 005°16'715.4
2018-Jun-19 17:30N 60°03' E 005°20'714.7
2018-Jun-19 17:00N 59°56' E 005°28'715.0
2018-Jun-19 16:30N 59°50' E 005°33'815.0
2018-Jun-19 16:00N 59°43' E 005°27'816.5
2018-Jun-19 15:30N 59°36' E 005°17'815.0
2018-Jun-19 15:00N 59°29' E 005°12'5 9.2
2018-Jun-19 14:30N 59°25' E 005°14'1 1.3
2018-Jun-19 13:58N 59°25' E 005°15'0 0.0
2018-Jun-19 13:28N 59°25' E 005°15'0 0.0
2018-Jun-19 12:58N 59°25' E 005°15'0 0.0
2018-Jun-19 12:28N 59°25' E 005°15'0 0.0
2018-Jun-19 11:58N 59°25' E 005°15'0 0.0
2018-Jun-19 11:28N 59°25' E 005°15'0 0.0
2018-Jun-19 10:58N 59°25' E 005°15'0 0.0
2018-Jun-19 10:28N 59°25' E 005°15'0 0.0
2018-Jun-19 09:58N 59°25' E 005°15'0 0.0
2018-Jun-19 09:28N 59°25' E 005°15'0 0.0
2018-Jun-19 08:58N 59°25' E 005°15'0 0.0
2018-Jun-19 08:28N 59°25' E 005°15'0 0.0
2018-Jun-19 07:58N 59°25' E 005°15'0 0.0
2018-Jun-19 07:28N 59°25' E 005°15'0 0.0
2018-Jun-19 06:58N 59°25' E 005°15'0 0.0
2018-Jun-19 06:29N 59°25' E 005°15'3 5.1
2018-Jun-19 05:59N 59°27' E 005°12'611.6
2018-Jun-19 05:30N 59°22' E 005°06'817.0
2018-Jun-19 05:01N 59°13' E 005°07'816.0
2018-Jun-19 04:31N 59°06' E 005°15'611.9
2018-Jun-19 04:00N 59°06' E 005°26'510.2
2018-Jun-19 03:30N 59°02' E 005°20'714.4
2018-Jun-19 03:00N 58°55' E 005°19'815.5
2018-Jun-19 02:30N 58°48' E 005°17'815.6
2018-Jun-19 02:00N 58°40' E 005°14'815.8
2018-Jun-19 01:30N 58°32' E 005°12'917.0
2018-Jun-19 00:59N 58°23' E 005°08'38218.4
2018-Jun-18 04:12N 52°11' E 002°37'1522.9
2018-Jun-18 03:33N 51°56' E 002°37'222.7
2018-Jun-18 03:27N 51°54' E 002°37'1021.7
2018-Jun-18 03:00N 51°45' E 002°31'1122.4
2018-Jun-18 02:30N 51°36' E 002°21'1122.2
2018-Jun-18 02:00N 51°26' E 002°10'1121.5
2018-Jun-18 01:30N 51°16' E 002°06'1122.1
2018-Jun-18 01:00N 51°10' E 001°51'1122.0
2018-Jun-18 00:30N 51°03' E 001°38'1121.4
2018-Jun-18 00:00N 50°56' E 001°25'1121.4
2018-Jun-17 23:30N 50°45' E 001°21'1121.3
2018-Jun-17 22:59N 50°37' E 001°10'1021.8
2018-Jun-17 22:30N 50°31' E 000°56'1122.3
2018-Jun-17 22:00N 50°29' E 000°39'1122.2
2018-Jun-17 21:31N 50°25' E 000°22'1921.6
2018-Jun-17 20:37N 50°21' W 000°07'621.5
2018-Jun-17 20:21N 50°24' W 000°15'721.2
2018-Jun-17 20:01N 50°27' W 000°25'1020.5
2018-Jun-17 19:30N 50°33' W 000°39'815.5
2018-Jun-17 19:01N 50°37' W 000°50'714.1
2018-Jun-17 18:30N 50°42' W 000°58'715.0
2018-Jun-17 18:01N 50°45' W 001°08'714.3
2018-Jun-17 17:30N 50°47' W 001°19'4 8.8
2018-Jun-17 17:01N 50°52' W 001°21'3 5.5
2018-Jun-17 16:26N 50°54' W 001°25'0 0.0
2018-Jun-17 15:59N 50°54' W 001°25'0 0.0
2018-Jun-17 15:29N 50°54' W 001°25'0 0.0
2018-Jun-17 14:50N 50°54' W 001°25'0 0.0
2018-Jun-17 14:29N 50°54' W 001°25'0 0.0
2018-Jun-17 13:59N 50°54' W 001°25'0 0.0
2018-Jun-17 13:29N 50°54' W 001°25'0 0.0
2018-Jun-17 12:59N 50°54' W 001°25'0 0.0
2018-Jun-17 12:28N 50°54' W 001°25'0 0.0
2018-Jun-17 11:59N 50°54' W 001°25'0 0.0
2018-Jun-17 11:28N 50°54' W 001°25'0 0.0
2018-Jun-17 10:59N 50°54' W 001°25'0 0.0
2018-Jun-17 10:29N 50°54' W 001°25'0 0.0
2018-Jun-17 09:59N 50°54' W 001°25'0 0.0
2018-Jun-17 09:29N 50°54' W 001°25'0 0.0
2018-Jun-17 08:59N 50°54' W 001°25'0 0.0
2018-Jun-17 08:29N 50°54' W 001°25'0 0.0
2018-Jun-17 07:59N 50°54' W 001°25'0 0.0
2018-Jun-17 07:29N 50°54' W 001°25'0 0.0
2018-Jun-17 06:59N 50°54' W 001°25'0 0.1
2018-Jun-17 06:30N 50°54' W 001°25'1 2.7
2018-Jun-17 06:00N 50°53' W 001°24'4 8.6
2018-Jun-17 05:30N 50°50' W 001°19'5 9.1
2018-Jun-17 05:00N 50°46' W 001°15'918.4
2018-Jun-17 04:30N 50°43' W 001°01'611.5
2018-Jun-17 04:00N 50°39' W 000°55'510.3
2018-Jun-17 03:30N 50°36' W 000°48'714.0
2018-Jun-17 03:00N 50°34' W 000°38'714.0
2018-Jun-17 02:30N 50°33' W 000°27'714.7
2018-Jun-17 02:00N 50°33' W 000°15'714.8
2018-Jun-17 01:30N 50°32' W 000°04'815.5
2018-Jun-17 00:59N 50°33' E 000°09'815.9
2018-Jun-17 00:30N 50°35' E 000°21'815.2
2018-Jun-17 00:01N 50°37' E 000°32'815.0
2018-Jun-16 23:31N 50°41' E 000°42'815.3
2018-Jun-16 23:00N 50°45' E 000°53'816.0
2018-Jun-16 22:30N 50°49' E 001°03'816.8
2018-Jun-16 22:00N 50°53' E 001°15'918.4
2018-Jun-16 21:30N 50°60' E 001°25'1122.8
2018-Jun-16 21:01N 51°08' E 001°38'1122.1
2018-Jun-16 20:31N 51°16' E 001°49'1121.5
2018-Jun-16 20:00N 51°26' E 001°57'1020.6
2018-Jun-16 19:31N 51°34' E 002°07'1020.1
2018-Jun-16 19:00N 51°41' E 002°18'1019.5
2018-Jun-16 18:30N 51°49' E 002°27'1019.1
2018-Jun-16 18:00N 51°58' E 002°35'816.1
2018-Jun-16 17:29N 52°06' E 002°38'1815.3
2018-Jun-16 16:17N 52°24' E 002°38'515.4
2018-Jun-16 15:57N 52°29' E 002°38'715.5
2018-Jun-16 15:30N 52°36' E 002°39'815.9
2018-Jun-16 15:00N 52°44' E 002°40'916.6
2018-Jun-16 14:28N 52°53' E 002°40'44711.9
2018-Jun-15 01:00N 60°18' E 001°18'9314.2 250 / 401000.110.8 11.0 10.0
2018-Jun-14 18:28N 60°43' E 004°19'612.9
2018-Jun-14 18:00N 60°44' E 004°32'612.4
2018-Jun-14 17:30N 60°44' E 004°44'713.3
2018-Jun-14 17:00N 60°39' E 004°52'918.0
2018-Jun-14 16:29N 60°30' E 004°58'613.2
2018-Jun-14 16:00N 60°25' E 005°06'5 9.5
2018-Jun-14 15:30N 60°24' E 005°16'2 2.8
2018-Jun-14 14:56N 60°24' E 005°19'0 0.0
2018-Jun-14 14:26N 60°24' E 005°19'0 0.0
2018-Jun-14 13:56N 60°24' E 005°19'0 0.0
2018-Jun-14 13:26N 60°24' E 005°19'0 0.0
2018-Jun-14 12:56N 60°24' E 005°19'0 0.0
2018-Jun-14 12:26N 60°24' E 005°19'0 0.0
2018-Jun-14 11:56N 60°24' E 005°19'0 0.0
2018-Jun-14 11:26N 60°24' E 005°19'0 0.0
2018-Jun-14 10:56N 60°24' E 005°19'0 0.0
2018-Jun-14 10:26N 60°24' E 005°19'0 0.0
2018-Jun-14 09:56N 60°24' E 005°19'0 0.0
2018-Jun-14 09:26N 60°24' E 005°19'0 0.0
2018-Jun-14 08:56N 60°24' E 005°19'0 0.0
2018-Jun-14 08:26N 60°24' E 005°19'0 0.0
2018-Jun-14 07:56N 60°24' E 005°19'0 0.0
2018-Jun-14 07:26N 60°24' E 005°19'0 0.0
2018-Jun-14 06:56N 60°24' E 005°19'0 0.0
2018-Jun-14 06:26N 60°24' E 005°19'0 0.0
2018-Jun-14 05:57N 60°24' E 005°19'0 0.2
2018-Jun-14 05:29N 60°24' E 005°19'4 8.1
2018-Jun-14 05:01N 60°23' E 005°11'510.8
2018-Jun-14 04:30N 60°26' E 005°02'714.6
2018-Jun-14 04:00N 60°33' E 004°56'714.6
2018-Jun-14 03:30N 60°40' E 004°51'611.2
2018-Jun-14 02:59N 60°44' E 004°44'611.5
2018-Jun-14 02:29N 60°47' E 004°33'611.8
2018-Jun-14 01:59N 60°51' E 004°26'612.0
2018-Jun-14 01:30N 60°56' E 004°21'612.1
2018-Jun-14 01:00N 61°02' E 004°17'6612.4
2018-Jun-13 19:41N 62°08' E 004°28'213.9
2018-Jun-13 19:30N 62°10' E 004°29'714.0
2018-Jun-13 19:00N 62°15' E 004°40'714.4
2018-Jun-13 18:30N 62°20' E 004°52'714.3
2018-Jun-13 18:00N 62°24' E 005°04'714.2
2018-Jun-13 17:29N 62°29' E 005°17'713.9
2018-Jun-13 17:00N 62°30' E 005°30'713.9
2018-Jun-13 16:30N 62°29' E 005°46'713.5
2018-Jun-13 16:00N 62°27' E 005°59'5 9.4
2018-Jun-13 15:30N 62°27' E 006°09'1 1.9
2018-Jun-13 14:59N 62°28' E 006°09'0 0.0
2018-Jun-13 14:29N 62°28' E 006°09'0 0.0
2018-Jun-13 13:59N 62°28' E 006°09'0 0.0
2018-Jun-13 13:29N 62°28' E 006°09'0 0.0
2018-Jun-13 12:59N 62°28' E 006°09'0 0.0
2018-Jun-13 12:29N 62°28' E 006°09'0 0.0
2018-Jun-13 11:59N 62°28' E 006°09'  

Dump ship's entire track history